VTBS/BKK METAR and TAF weather

Enter ICAO airport designator
Station Type Date Time Source
VTBS METAR 2019/08/22 04:30 UTC NOAA

VTBS 220430Z 18015KT 9999 FEW020 SCT035 31/24 Q1008 NOSIG


Station Type Date Time Source
VTBS Decoded METAR 2019/08/22 04:30 UTC NOAA

Station name not available
Aug 22, 2019 - 12:30 AM EDT / 2019.08.22 0430 UTC
Wind: from the S (180 degrees) at 17 MPH (15 KT):0
Visibility: greater than 7 mile(s):0
Sky conditions: partly cloudy
Temperature: 87 F (31 C)
Heat index: 95.7 F (35.4 C):1
Dew Point: 75 F (24 C)
Relative Humidity: 66%
Pressure (altimeter): 29.77 in. Hg (1008 hPa)
ob: VTBS 220430Z 18015KT 9999 FEW020 SCT035 31/24 Q1008 NOSIG
cycle: 4

Station Type Date Time Source
VTBS TAF 2019/08/21 18:00 UTC NOAA

TAF VTBS 211700Z 2118/2224 22008KT 9000 FEW020 SCT100
TEMPO 2207/2213 25015KT 5000 TSRA FEW018CB SCT030 BKN100

Example: see airport list